createdAt,value
2023-05-18T00:00:55.091Z,8.56
2023-05-18T00:01:55.082Z,8.64
2023-05-18T00:02:55.129Z,8.40
2023-05-18T00:03:55.211Z,8.40
2023-05-18T00:04:55.291Z,7.76
2023-05-18T00:05:55.038Z,7.59
2023-05-18T00:06:55.025Z,8.64
2023-05-18T00:07:55.017Z,7.84
2023-05-18T00:08:55.000Z,8.23
2023-05-18T00:09:55.036Z,5.90
2023-05-18T00:10:54.977Z,8.81
2023-05-18T00:11:54.979Z,8.15
2023-05-18T00:12:54.981Z,8.56
2023-05-18T00:13:54.953Z,7.84
2023-05-18T00:14:54.943Z,8.72
2023-05-18T00:15:54.939Z,8.00
2023-05-18T00:16:54.914Z,9.13
2023-05-18T00:17:54.951Z,8.81
2023-05-18T00:18:54.945Z,8.15
2023-05-18T00:19:54.890Z,8.56
2023-05-18T00:20:54.875Z,8.07
2023-05-18T00:21:54.866Z,7.92
2023-05-18T00:22:54.877Z,7.84
2023-05-18T00:23:54.846Z,8.32
2023-05-18T00:24:54.843Z,7.03
2023-05-18T00:25:54.822Z,8.23
2023-05-18T00:26:54.814Z,8.32
2023-05-18T00:27:54.811Z,7.67
2023-05-18T00:28:54.823Z,7.67
2023-05-18T00:29:54.784Z,8.32
2023-05-18T00:30:54.781Z,8.32
2023-05-18T00:31:54.783Z,7.76
2023-05-18T00:32:54.791Z,8.07
2023-05-18T00:33:54.742Z,7.67
2023-05-18T00:34:54.726Z,7.59
2023-05-18T00:35:54.726Z,8.81
2023-05-18T00:36:54.716Z,8.23
2023-05-18T00:37:54.703Z,8.56
2023-05-18T00:38:54.696Z,7.76
2023-05-18T00:39:54.686Z,8.72
2023-05-18T00:40:54.668Z,7.67
2023-05-18T00:41:54.659Z,8.07
2023-05-18T00:42:54.646Z,8.23
2023-05-18T00:43:54.641Z,8.32
2023-05-18T00:44:54.656Z,7.67
2023-05-18T00:45:54.669Z,7.76
2023-05-18T00:46:54.603Z,8.72
2023-05-18T00:47:54.615Z,7.67
2023-05-18T00:48:54.585Z,8.23
2023-05-18T00:49:54.579Z,7.76
2023-05-18T00:50:54.560Z,7.67
2023-05-18T00:51:54.553Z,8.07
2023-05-18T00:52:54.543Z,7.84
2023-05-18T00:53:54.536Z,7.92
2023-05-18T00:54:54.519Z,8.48
2023-05-18T00:55:54.513Z,7.44
2023-05-18T00:56:54.509Z,8.40
2023-05-18T00:57:54.491Z,6.79
2023-05-18T00:58:54.489Z,7.92
2023-05-18T00:59:54.469Z,8.00
2023-05-18T01:00:54.555Z,8.40
2023-05-18T01:01:54.495Z,8.23
2023-05-18T01:02:54.580Z,8.07
2023-05-18T01:03:54.428Z,7.36
2023-05-18T01:04:54.414Z,7.52
2023-05-18T01:05:54.405Z,8.15
2023-05-18T01:06:54.394Z,8.56
2023-05-18T01:07:54.387Z,8.23
2023-05-18T01:08:54.376Z,7.84
2023-05-18T01:09:54.366Z,8.23
2023-05-18T01:10:54.373Z,7.59
2023-05-18T01:11:54.346Z,7.59
2023-05-18T01:12:54.333Z,7.84
2023-05-18T01:13:54.324Z,8.07
2023-05-18T01:14:54.314Z,8.15
2023-05-18T01:15:54.306Z,7.44
2023-05-18T01:16:54.358Z,6.86
2023-05-18T01:17:54.350Z,7.52
2023-05-18T01:18:54.289Z,8.32
2023-05-18T01:19:54.263Z,8.00
2023-05-18T01:20:54.249Z,7.59
2023-05-18T01:21:54.243Z,7.92
2023-05-18T01:22:54.231Z,6.96
2023-05-18T01:23:54.222Z,6.71
2023-05-18T01:24:54.210Z,7.67
2023-05-18T01:27:10.370Z,7.52
2023-05-18T01:28:10.370Z,7.52
2023-05-18T01:29:10.345Z,7.03
2023-05-18T01:30:10.341Z,7.84
2023-05-18T01:31:10.383Z,8.48
2023-05-18T01:32:10.341Z,6.96
2023-05-18T01:33:10.381Z,7.59
2023-05-18T01:34:10.304Z,7.59
2023-05-18T01:35:10.293Z,7.36
2023-05-18T01:36:10.279Z,7.19
2023-05-18T01:37:10.268Z,7.84
2023-05-18T01:38:10.264Z,7.03
2023-05-18T01:39:10.248Z,7.44
2023-05-18T01:40:10.243Z,8.07
2023-05-18T01:41:10.229Z,8.00
2023-05-18T01:42:10.221Z,7.76
2023-05-18T01:43:10.209Z,7.36
2023-05-18T01:44:10.199Z,7.44
2023-05-18T01:45:10.193Z,8.00
2023-05-18T01:46:10.223Z,7.11
2023-05-18T01:47:10.170Z,6.96
2023-05-18T01:48:10.208Z,6.46
2023-05-18T01:49:10.148Z,7.92
2023-05-18T01:50:10.144Z,7.67
2023-05-18T01:51:10.126Z,7.11
2023-05-18T01:52:10.122Z,7.59
2023-05-18T01:53:10.112Z,6.15
2023-05-18T01:54:10.113Z,6.96
2023-05-18T01:55:10.109Z,7.84
2023-05-18T01:56:10.094Z,7.28
2023-05-18T01:57:10.064Z,7.52
2023-05-18T01:58:10.069Z,7.67
2023-05-18T01:59:10.060Z,7.52
2023-05-18T02:00:10.034Z,6.96
2023-05-18T02:01:10.030Z,7.03
2023-05-18T02:02:10.096Z,7.03
2023-05-18T02:03:10.108Z,7.28
2023-05-18T02:04:10.103Z,7.19
2023-05-18T02:05:09.985Z,7.03
2023-05-18T02:06:09.987Z,7.67
2023-05-18T02:07:09.977Z,7.67
2023-05-18T02:08:09.955Z,7.52
2023-05-18T02:09:09.960Z,7.36
2023-05-18T02:10:09.934Z,7.92
2023-05-18T02:11:09.922Z,7.52
2023-05-18T02:12:09.918Z,7.36
2023-05-18T02:13:09.897Z,7.92
2023-05-18T02:14:09.892Z,6.55
2023-05-18T02:15:09.889Z,7.59
2023-05-18T02:16:09.898Z,6.71
2023-05-18T02:17:09.857Z,7.59
2023-05-18T02:18:09.895Z,7.67
2023-05-18T02:19:09.880Z,7.92
2023-05-18T02:20:09.859Z,7.59
2023-05-18T02:21:09.820Z,6.63
2023-05-18T02:22:09.817Z,7.03
2023-05-18T02:23:09.800Z,8.48
2023-05-18T02:24:09.788Z,7.03
2023-05-18T02:25:09.780Z,7.03
2023-05-18T02:26:09.769Z,6.15
2023-05-18T02:27:09.767Z,7.59
2023-05-18T02:28:09.781Z,7.59
2023-05-18T02:29:09.748Z,7.11
2023-05-18T02:30:09.727Z,7.44
2023-05-18T02:31:09.719Z,7.59
2023-05-18T02:32:09.759Z,6.71
2023-05-18T02:33:09.713Z,7.11
2023-05-18T02:34:09.684Z,7.19
2023-05-18T02:35:09.671Z,6.55
2023-05-18T02:36:09.706Z,7.19
2023-05-18T02:37:09.649Z,6.79
2023-05-18T02:38:09.647Z,7.52
2023-05-18T02:39:09.630Z,7.44
2023-05-18T02:40:09.625Z,6.96
2023-05-18T02:41:09.609Z,7.67
2023-05-18T02:42:09.605Z,8.00
2023-05-18T02:43:09.593Z,7.19
2023-05-18T02:44:09.581Z,7.19
2023-05-18T02:45:09.583Z,6.38
2023-05-18T02:46:09.603Z,7.67
2023-05-18T02:47:09.552Z,7.36
2023-05-18T02:48:09.600Z,7.59
2023-05-18T02:49:09.535Z,7.28
2023-05-18T02:50:09.522Z,7.36
2023-05-18T02:51:09.513Z,6.96
2023-05-18T02:52:09.532Z,8.48
2023-05-18T02:53:09.493Z,7.76
2023-05-18T02:54:09.483Z,6.86
2023-05-18T02:55:09.475Z,7.03
2023-05-18T02:56:09.470Z,7.03
2023-05-18T02:57:09.463Z,8.00
2023-05-18T02:58:09.444Z,7.59
2023-05-18T02:59:09.432Z,6.79
2023-05-18T03:00:09.430Z,6.46
2023-05-18T03:01:09.450Z,8.15
2023-05-18T03:02:09.459Z,7.36
2023-05-18T03:03:09.509Z,7.67
2023-05-18T03:04:09.381Z,7.67
2023-05-18T03:05:09.382Z,7.28
2023-05-18T03:06:09.375Z,7.28
2023-05-18T03:07:09.352Z,7.03
2023-05-18T03:08:09.359Z,7.03
2023-05-18T03:09:09.336Z,6.30
2023-05-18T03:10:09.327Z,6.79
2023-05-18T03:11:09.320Z,6.79
2023-05-18T03:12:09.301Z,6.79
2023-05-18T03:13:09.289Z,5.98
2023-05-18T03:14:09.284Z,6.96
2023-05-18T03:15:09.279Z,6.07
2023-05-18T03:16:09.263Z,7.59
2023-05-18T03:17:09.276Z,7.76
2023-05-18T03:18:09.305Z,7.67
2023-05-18T03:19:09.322Z,6.79
2023-05-18T03:20:09.217Z,6.86
2023-05-18T03:21:09.204Z,7.19
2023-05-18T03:22:09.205Z,6.55
2023-05-18T03:23:09.187Z,6.96
2023-05-18T03:24:09.282Z,7.84
2023-05-18T03:25:09.186Z,7.11
2023-05-18T03:26:09.157Z,7.03
2023-05-18T03:27:09.149Z,7.28
2023-05-18T03:28:09.140Z,6.79
2023-05-18T03:29:09.141Z,7.19
2023-05-18T03:30:09.135Z,7.11
2023-05-18T03:31:09.121Z,7.19
2023-05-18T03:32:09.100Z,6.96
2023-05-18T03:33:09.167Z,8.48
2023-05-18T03:34:09.078Z,6.96
2023-05-18T03:35:09.069Z,6.86
2023-05-18T03:36:09.055Z,6.63
2023-05-18T03:37:09.055Z,6.63
2023-05-18T03:38:09.039Z,7.19
2023-05-18T03:39:09.026Z,6.96
2023-05-18T03:40:09.063Z,5.67
2023-05-18T03:41:09.009Z,6.38
2023-05-18T03:42:08.995Z,6.86
2023-05-18T03:43:08.990Z,6.79
2023-05-18T03:44:08.998Z,6.71
2023-05-18T03:45:08.974Z,6.63
2023-05-18T03:46:08.977Z,7.19
2023-05-18T03:47:08.946Z,6.86
2023-05-18T03:48:08.945Z,7.67
2023-05-18T03:49:08.959Z,7.19
2023-05-18T03:50:08.958Z,7.28
2023-05-18T03:51:08.915Z,6.79
2023-05-18T03:52:08.896Z,7.52
2023-05-18T03:53:08.888Z,7.52
2023-05-18T03:54:08.875Z,6.38
2023-05-18T03:55:08.866Z,8.15
2023-05-18T03:56:08.880Z,6.96
2023-05-18T03:57:08.864Z,6.46
2023-05-18T03:58:08.832Z,6.30
2023-05-18T03:59:08.824Z,5.90
2023-05-18T04:00:08.823Z,6.86
2023-05-18T04:01:08.801Z,6.55
2023-05-18T04:02:08.948Z,6.23
2023-05-18T04:03:08.889Z,7.11
2023-05-18T04:04:08.862Z,6.79
2023-05-18T04:05:08.782Z,6.86
2023-05-18T04:06:08.752Z,6.55
2023-05-18T04:07:08.742Z,6.55
2023-05-18T04:08:08.726Z,6.38
2023-05-18T04:09:08.728Z,7.52
2023-05-18T04:10:08.711Z,7.11
2023-05-18T04:11:08.699Z,7.28
2023-05-18T04:12:08.721Z,6.46
2023-05-18T04:13:08.686Z,6.96
2023-05-18T04:14:08.677Z,7.11
2023-05-18T04:15:08.663Z,6.63
2023-05-18T04:16:08.719Z,6.55
2023-05-18T04:17:08.641Z,6.38
2023-05-18T04:18:08.725Z,6.86
2023-05-18T04:19:08.670Z,6.96
2023-05-18T04:20:08.608Z,6.71
2023-05-18T04:21:08.605Z,7.11
2023-05-18T04:22:08.592Z,6.86
2023-05-18T04:23:08.603Z,6.30
2023-05-18T04:24:08.572Z,6.07
2023-05-18T04:25:08.564Z,6.79
2023-05-18T04:26:08.549Z,6.23
2023-05-18T04:27:08.563Z,7.52
2023-05-18T04:28:08.609Z,7.28
2023-05-18T04:29:08.521Z,7.03
2023-05-18T04:30:08.510Z,7.19
2023-05-18T04:31:08.501Z,7.28
2023-05-18T04:32:08.712Z,6.79
2023-05-18T04:33:08.619Z,6.86
2023-05-18T04:34:08.467Z,6.30
2023-05-18T04:35:08.461Z,6.79
2023-05-18T04:36:08.452Z,7.52
2023-05-18T04:37:08.436Z,7.11
2023-05-18T04:38:08.426Z,6.38
2023-05-18T04:39:08.418Z,6.63
2023-05-18T04:40:08.417Z,6.30
2023-05-18T04:41:08.395Z,6.46
2023-05-18T04:42:08.390Z,6.55
2023-05-18T04:43:08.445Z,6.30
2023-05-18T04:44:08.479Z,6.55
2023-05-18T04:45:08.355Z,6.46
2023-05-18T04:46:08.384Z,6.71
2023-05-18T04:47:08.351Z,6.96
2023-05-18T04:48:08.338Z,6.46
2023-05-18T04:49:08.313Z,7.19
2023-05-18T04:50:08.323Z,7.44
2023-05-18T04:51:08.296Z,6.38
2023-05-18T04:52:08.283Z,7.44
2023-05-18T04:53:08.273Z,6.55
2023-05-18T04:54:08.261Z,6.30
2023-05-18T04:55:08.255Z,6.71
2023-05-18T04:56:08.247Z,6.79
2023-05-18T04:57:08.238Z,7.11
2023-05-18T04:58:08.222Z,6.63
2023-05-18T04:59:08.223Z,6.71
2023-05-18T05:00:08.221Z,6.79
2023-05-18T05:01:08.230Z,6.96
2023-05-18T05:02:08.233Z,7.03
2023-05-18T05:03:08.227Z,6.63
2023-05-18T05:04:08.156Z,6.86
2023-05-18T05:05:08.164Z,6.79
2023-05-18T05:06:08.141Z,6.55
2023-05-18T05:07:08.128Z,7.67
2023-05-18T05:08:08.113Z,6.71
2023-05-18T05:09:08.113Z,7.19
2023-05-18T05:10:08.112Z,6.23
2023-05-18T05:11:08.085Z,6.23
2023-05-18T05:12:08.073Z,7.36
2023-05-18T05:13:08.064Z,7.11
2023-05-18T05:14:08.055Z,7.52
2023-05-18T05:15:08.044Z,7.84
2023-05-18T05:16:08.097Z,7.59
2023-05-18T05:17:08.020Z,6.79
2023-05-18T05:18:08.075Z,6.71
2023-05-18T05:19:08.089Z,6.38
2023-05-18T05:20:07.990Z,7.19
2023-05-18T05:21:07.975Z,7.67
2023-05-18T05:22:07.991Z,6.79
2023-05-18T05:23:08.042Z,6.55
2023-05-18T05:24:07.947Z,7.03
2023-05-18T05:25:07.937Z,7.28
2023-05-18T05:26:07.933Z,6.55
2023-05-18T05:27:07.933Z,7.52
2023-05-18T05:28:07.909Z,7.28
2023-05-18T05:29:07.894Z,7.36
2023-05-18T05:30:07.891Z,6.23
2023-05-18T05:31:07.894Z,7.44
2023-05-18T05:32:07.880Z,6.86
2023-05-18T05:33:07.916Z,7.28
2023-05-18T05:34:07.849Z,6.55
2023-05-18T05:35:07.841Z,7.19
2023-05-18T05:36:07.835Z,6.55
2023-05-18T05:37:07.818Z,7.59
2023-05-18T05:38:07.808Z,5.98
2023-05-18T05:39:07.793Z,6.71
2023-05-18T05:40:07.787Z,7.11
2023-05-18T05:41:07.786Z,7.59
2023-05-18T05:42:07.761Z,7.28
2023-05-18T05:43:07.761Z,7.03
2023-05-18T05:44:07.741Z,7.59
2023-05-18T05:45:07.750Z,7.03
2023-05-18T05:46:07.723Z,7.36
2023-05-18T05:47:07.800Z,6.86
2023-05-18T05:48:07.889Z,7.36
2023-05-18T05:49:07.692Z,6.86
2023-05-18T05:50:07.714Z,6.07
2023-05-18T05:51:07.677Z,7.44
2023-05-18T05:52:07.668Z,7.19
2023-05-18T05:53:07.669Z,7.19
2023-05-18T05:54:09.979Z,7.03
2023-05-18T05:55:07.627Z,6.96
2023-05-18T05:56:07.622Z,7.36
2023-05-18T05:57:07.617Z,7.03
2023-05-18T05:58:07.611Z,6.55
2023-05-18T05:59:07.594Z,7.52
2023-05-18T06:00:07.582Z,7.44
2023-05-18T06:01:07.572Z,7.84
2023-05-18T06:02:07.616Z,7.36
2023-05-18T06:03:07.623Z,7.28
2023-05-18T06:04:07.757Z,7.36
2023-05-18T06:05:07.539Z,7.03
2023-05-18T06:06:07.517Z,7.11
2023-05-18T06:07:07.506Z,6.79
2023-05-18T06:08:07.498Z,7.59
2023-05-18T06:09:07.484Z,7.19
2023-05-18T06:10:07.477Z,5.98
2023-05-18T06:11:10.677Z,7.03
2023-05-18T06:12:07.481Z,7.36
2023-05-18T06:13:07.463Z,6.96
2023-05-18T06:14:07.431Z,7.28
2023-05-18T06:15:07.422Z,7.28
2023-05-18T06:16:07.436Z,7.67
2023-05-18T06:17:07.437Z,7.76
2023-05-18T06:18:07.429Z,7.44
2023-05-18T06:19:07.479Z,7.28
2023-05-18T06:20:07.415Z,7.36
2023-05-18T06:21:07.358Z,7.28
2023-05-18T06:22:07.356Z,7.92
2023-05-18T06:23:07.341Z,7.28
2023-05-18T06:24:07.380Z,7.84
2023-05-18T06:25:07.325Z,7.28
2023-05-18T06:26:07.311Z,7.36
2023-05-18T06:27:07.297Z,8.23
2023-05-18T06:28:07.289Z,7.76
2023-05-18T06:29:07.277Z,7.52
2023-05-18T06:30:07.283Z,7.59
2023-05-18T06:31:07.314Z,7.76
2023-05-18T06:32:07.350Z,7.36
2023-05-18T06:33:07.288Z,7.03
2023-05-18T06:34:07.228Z,7.84
2023-05-18T06:35:07.218Z,7.84
2023-05-18T06:36:07.235Z,7.52
2023-05-18T06:37:07.196Z,7.36
2023-05-18T06:38:07.188Z,7.84
2023-05-18T06:39:07.186Z,7.59
2023-05-18T06:40:07.174Z,7.44
2023-05-18T06:41:07.182Z,7.36
2023-05-18T06:42:07.154Z,7.19
2023-05-18T06:43:07.139Z,7.11
2023-05-18T06:44:07.126Z,7.19
2023-05-18T06:45:07.119Z,7.44
2023-05-18T06:46:07.137Z,7.28
2023-05-18T06:47:07.119Z,8.15
2023-05-18T06:48:07.140Z,7.11
2023-05-18T06:49:07.089Z,7.76
2023-05-18T06:50:07.062Z,7.36
2023-05-18T06:51:07.066Z,7.19
2023-05-18T06:52:07.072Z,7.36
2023-05-18T06:53:07.039Z,7.76
2023-05-18T06:54:07.030Z,7.67
2023-05-18T06:55:07.024Z,7.84
2023-05-18T06:56:07.006Z,8.00
2023-05-18T06:57:07.001Z,7.44
2023-05-18T06:58:06.994Z,7.59
2023-05-18T06:59:06.979Z,7.84
2023-05-18T07:00:06.969Z,7.67
2023-05-18T07:01:06.968Z,7.84
2023-05-18T07:02:06.947Z,7.28
2023-05-18T07:03:07.053Z,7.59
2023-05-18T07:04:07.000Z,8.07
2023-05-18T07:05:06.930Z,7.36
2023-05-18T07:06:06.915Z,7.44
2023-05-18T07:07:06.916Z,7.44
2023-05-18T07:08:06.956Z,7.44
2023-05-18T07:09:06.876Z,8.23
2023-05-18T07:10:06.864Z,7.52
2023-05-18T07:11:06.864Z,7.59
2023-05-18T07:12:06.845Z,8.00
2023-05-18T07:13:06.838Z,7.11
2023-05-18T07:14:06.827Z,7.92
2023-05-18T07:15:06.817Z,8.15
2023-05-18T07:16:06.868Z,8.15
2023-05-18T07:17:06.798Z,9.05
2023-05-18T07:18:06.889Z,7.92
2023-05-18T07:19:06.826Z,7.84
2023-05-18T07:20:06.773Z,8.15
2023-05-18T07:21:06.753Z,7.44
2023-05-18T07:22:06.749Z,8.32
2023-05-18T07:23:06.736Z,7.84
2023-05-18T07:24:06.750Z,7.19
2023-05-18T07:25:06.723Z,8.32
2023-05-18T07:26:06.705Z,7.52
2023-05-18T07:27:06.697Z,8.48
2023-05-18T07:28:06.701Z,8.00
2023-05-18T07:29:06.679Z,8.40
2023-05-18T07:30:06.669Z,7.59
2023-05-18T07:31:06.694Z,7.52
2023-05-18T07:32:06.651Z,7.36
2023-05-18T07:33:06.732Z,8.23
2023-05-18T07:34:06.622Z,8.40
2023-05-18T07:35:06.626Z,7.76
2023-05-18T07:36:06.622Z,8.00
2023-05-18T07:37:06.598Z,7.84
2023-05-18T07:38:06.598Z,8.00
2023-05-18T07:39:06.578Z,8.40
2023-05-18T07:40:06.592Z,8.32
2023-05-18T07:41:06.559Z,7.52
2023-05-18T07:42:06.548Z,8.64
2023-05-18T07:43:06.538Z,8.15
2023-05-18T07:44:06.532Z,8.32
2023-05-18T07:45:06.518Z,8.23
2023-05-18T07:46:06.516Z,8.64
2023-05-18T07:47:06.566Z,7.92
2023-05-18T07:48:06.518Z,8.48
2023-05-18T07:49:06.478Z,8.15
2023-05-18T07:50:06.467Z,8.07
2023-05-18T07:51:06.454Z,7.44
2023-05-18T07:52:06.449Z,8.15
2023-05-18T07:53:06.434Z,8.32
2023-05-18T07:54:06.436Z,8.81
2023-05-18T07:55:06.415Z,9.21
2023-05-18T07:56:06.436Z,7.92
2023-05-18T07:57:06.396Z,8.56
2023-05-18T07:58:06.388Z,7.84
2023-05-18T07:59:06.377Z,8.23
2023-05-18T08:00:06.386Z,8.15
2023-05-18T08:01:06.368Z,8.15
2023-05-18T08:02:06.383Z,8.00
2023-05-18T08:03:06.379Z,8.07
2023-05-18T08:04:06.458Z,8.81
2023-05-18T08:05:06.321Z,7.67
2023-05-18T08:06:06.337Z,8.48
2023-05-18T08:07:06.297Z,8.56
2023-05-18T08:08:07.137Z,8.23
2023-05-18T08:09:06.277Z,8.64
2023-05-18T08:10:06.266Z,7.84
2023-05-18T08:11:06.256Z,8.07
2023-05-18T08:12:06.262Z,8.56
2023-05-18T08:13:06.236Z,8.56
2023-05-18T08:14:06.228Z,8.64
2023-05-18T08:15:06.214Z,8.64
2023-05-18T08:16:11.836Z,8.40
2023-05-18T08:17:07.288Z,8.15
2023-05-18T08:18:06.224Z,8.48
2023-05-18T08:19:06.217Z,8.97
2023-05-18T08:20:06.165Z,8.64
2023-05-18T08:21:06.156Z,8.56
2023-05-18T08:22:06.150Z,7.76
2023-05-18T08:23:06.147Z,8.56
2023-05-18T08:24:06.125Z,9.05
2023-05-18T08:25:06.117Z,8.07
2023-05-18T08:26:06.109Z,8.64
2023-05-18T08:27:06.095Z,7.84
2023-05-18T08:28:06.106Z,8.56
2023-05-18T08:29:06.079Z,8.97
2023-05-18T08:30:06.070Z,7.76
2023-05-18T08:31:06.056Z,8.40
2023-05-18T08:32:06.067Z,8.40
2023-05-18T08:33:06.062Z,8.48
2023-05-18T08:34:06.029Z,8.48
2023-05-18T08:35:06.033Z,9.21
2023-05-18T08:36:06.008Z,8.48
2023-05-18T08:37:05.990Z,8.56
2023-05-18T08:38:05.983Z,8.97
2023-05-18T08:39:05.992Z,9.13
2023-05-18T08:40:05.969Z,8.72
2023-05-18T08:41:05.959Z,9.05
2023-05-18T08:42:05.953Z,8.07
2023-05-18T08:43:06.020Z,8.48
2023-05-18T08:44:05.974Z,8.72
2023-05-18T08:45:05.911Z,8.23
2023-05-18T08:46:05.922Z,8.15
2023-05-18T08:47:05.896Z,8.40
2023-05-18T08:48:05.940Z,9.13
2023-05-18T08:49:06.146Z,8.97
2023-05-18T08:50:05.866Z,8.64
2023-05-18T08:51:05.850Z,8.89
2023-05-18T08:52:05.879Z,8.07
2023-05-18T08:53:05.829Z,9.05
2023-05-18T08:54:05.821Z,8.32
2023-05-18T08:55:05.828Z,7.44
2023-05-18T08:56:05.807Z,8.81
2023-05-18T08:57:05.795Z,8.64
2023-05-18T08:58:05.795Z,7.76
2023-05-18T08:59:05.780Z,9.05
2023-05-18T09:00:05.855Z,9.52
2023-05-18T09:01:05.786Z,8.48
2023-05-18T09:02:05.772Z,8.72
2023-05-18T09:03:05.765Z,8.07
2023-05-18T09:04:05.734Z,9.21
2023-05-18T09:05:05.727Z,8.23
2023-05-18T09:06:05.693Z,8.40
2023-05-18T09:07:05.678Z,8.81
2023-05-18T09:08:05.674Z,8.48
2023-05-18T09:09:05.660Z,9.05
2023-05-18T09:10:05.664Z,9.05
2023-05-18T09:11:05.640Z,8.89
2023-05-18T09:12:05.637Z,9.05
2023-05-18T09:13:05.620Z,9.36
2023-05-18T09:14:05.608Z,8.72
2023-05-18T09:15:05.609Z,9.77
2023-05-18T09:16:05.673Z,9.13
2023-05-18T09:17:05.582Z,8.89
2023-05-18T09:18:05.601Z,9.44
2023-05-18T09:19:05.581Z,9.05
2023-05-18T09:20:05.553Z,9.36
2023-05-18T09:21:05.538Z,8.89
2023-05-18T09:22:05.529Z,9.77
2023-05-18T09:23:05.518Z,9.21
2023-05-18T09:24:05.511Z,9.21
2023-05-18T09:25:05.500Z,9.44
2023-05-18T09:26:05.490Z,8.72
2023-05-18T09:27:05.482Z,9.13
2023-05-18T09:28:05.476Z,9.36
2023-05-18T09:29:05.462Z,9.21
2023-05-18T09:30:05.455Z,9.77
2023-05-18T09:31:05.453Z,8.40
2023-05-18T09:32:05.546Z,9.28
2023-05-18T09:33:05.461Z,9.60
2023-05-18T09:34:05.499Z,9.05
2023-05-18T09:35:05.414Z,8.89
2023-05-18T09:36:05.390Z,8.81
2023-05-18T09:37:05.383Z,8.97
2023-05-18T09:38:05.373Z,9.44
2023-05-18T09:39:05.364Z,9.05
2023-05-18T09:40:05.353Z,8.72
2023-05-18T09:41:05.341Z,9.60
2023-05-18T09:42:05.341Z,8.89
2023-05-18T09:43:05.316Z,9.28
2023-05-18T09:44:05.317Z,9.36
2023-05-18T09:45:05.291Z,8.81
2023-05-18T09:46:05.295Z,9.36
2023-05-18T09:47:05.393Z,8.97
2023-05-18T09:48:05.327Z,9.68
2023-05-18T09:49:05.257Z,8.64
2023-05-18T09:50:05.251Z,9.13
2023-05-18T09:51:05.235Z,9.05
2023-05-18T09:52:05.227Z,9.13
2023-05-18T09:53:05.216Z,9.52
2023-05-18T09:54:05.259Z,8.81
2023-05-18T09:55:05.229Z,8.56
2023-05-18T09:56:05.186Z,9.68
2023-05-18T09:58:05.167Z,9.28
2023-05-18T09:59:05.156Z,8.56
2023-05-18T10:00:05.146Z,9.52
2023-05-18T10:01:05.160Z,9.21
2023-05-18T10:02:05.141Z,9.77
2023-05-18T10:03:05.180Z,9.68
2023-05-18T10:04:05.235Z,9.13
2023-05-18T10:05:05.097Z,10.18
2023-05-18T10:06:05.089Z,9.52
2023-05-18T10:07:05.074Z,9.36
2023-05-18T10:08:05.068Z,9.13
2023-05-18T10:09:05.054Z,9.77
2023-05-18T10:10:07.150Z,7.84
2023-05-18T10:11:05.041Z,9.93
2023-05-18T10:12:05.024Z,10.02
2023-05-18T10:13:05.018Z,9.36
2023-05-18T10:14:05.007Z,9.36
2023-05-18T10:15:04.992Z,8.89
2023-05-18T10:16:04.982Z,9.52
2023-05-18T10:17:15.032Z,9.52
2023-05-18T10:18:06.028Z,9.85
2023-05-18T10:19:05.010Z,9.68
2023-05-18T10:20:05.070Z,9.68
2023-05-18T10:21:04.942Z,9.28
2023-05-18T10:22:04.920Z,9.60
2023-05-18T10:23:04.913Z,9.36
2023-05-18T10:24:04.904Z,9.21
2023-05-18T10:25:05.010Z,9.28
2023-05-18T10:26:04.882Z,9.28
2023-05-18T10:27:04.877Z,9.52
2023-05-18T10:28:04.862Z,9.60
2023-05-18T10:29:04.860Z,9.36
2023-05-18T10:30:04.840Z,9.13
2023-05-18T10:31:04.872Z,9.68
2023-05-18T10:32:07.542Z,9.44
2023-05-18T10:33:11.322Z,9.05
2023-05-18T10:34:05.829Z,9.68
2023-05-18T10:35:04.785Z,9.77
2023-05-18T10:36:04.811Z,9.85
2023-05-18T10:37:04.767Z,9.77
2023-05-18T10:38:04.762Z,9.13
2023-05-18T10:39:04.748Z,9.68
2023-05-18T10:40:04.745Z,8.89
2023-05-18T10:41:04.726Z,10.18
2023-05-18T10:42:04.717Z,9.52
2023-05-18T10:43:04.713Z,9.13
2023-05-18T10:44:04.705Z,9.05
2023-05-18T10:45:04.684Z,9.21
2023-05-18T10:46:04.779Z,9.60
2023-05-18T10:47:04.723Z,9.85
2023-05-18T10:48:04.671Z,9.52
2023-05-18T10:49:04.642Z,9.05
2023-05-18T10:50:04.641Z,9.68
2023-05-18T10:51:04.624Z,9.28
2023-05-18T10:52:04.647Z,9.36
2023-05-18T10:53:04.602Z,8.89
2023-05-18T10:54:04.593Z,8.89
2023-05-18T10:55:04.660Z,9.93
2023-05-18T10:56:04.581Z,9.52
2023-05-18T10:57:04.559Z,9.77
2023-05-18T10:58:04.556Z,9.85
2023-05-18T10:59:04.537Z,9.85
2023-05-18T11:00:04.530Z,9.60
2023-05-18T11:01:04.523Z,9.68
2023-05-18T11:02:04.555Z,9.44
2023-05-18T11:03:04.536Z,8.72
2023-05-18T11:04:04.490Z,9.77
2023-05-18T11:05:04.491Z,8.72
2023-05-18T11:06:04.475Z,9.28
2023-05-18T11:07:04.470Z,10.02
2023-05-18T11:08:04.486Z,9.93
2023-05-18T11:09:04.440Z,9.77
2023-05-18T11:10:04.424Z,10.89
2023-05-18T11:11:04.422Z,10.02
2023-05-18T11:12:04.406Z,9.93
2023-05-18T11:13:04.408Z,10.42
2023-05-18T11:14:04.384Z,10.57
2023-05-18T11:15:04.376Z,10.26
2023-05-18T11:16:04.412Z,9.77
2023-05-18T11:17:04.351Z,9.93
2023-05-18T11:18:04.362Z,9.60
2023-05-18T11:19:04.344Z,10.18
2023-05-18T11:20:04.332Z,9.60
2023-05-18T11:21:04.313Z,9.60
2023-05-18T11:22:04.306Z,9.77
2023-05-18T11:23:04.289Z,10.57
2023-05-18T11:24:04.303Z,9.68
2023-05-18T11:25:04.276Z,10.34
2023-05-18T11:26:04.261Z,10.34
2023-05-18T11:27:04.260Z,10.02
2023-05-18T11:28:04.252Z,10.02
2023-05-18T11:29:04.235Z,10.10
2023-05-18T11:30:15.215Z,10.18
2023-05-18T11:31:05.240Z,10.26
2023-05-18T11:32:05.277Z,9.85
2023-05-18T11:33:04.311Z,10.26
2023-05-18T11:34:04.183Z,10.57
2023-05-18T11:35:04.169Z,10.65
2023-05-18T11:36:04.159Z,9.44
2023-05-18T11:37:04.148Z,9.68
2023-05-18T11:38:04.142Z,9.85
2023-05-18T11:39:04.137Z,10.57
2023-05-18T11:41:04.114Z,10.50
2023-05-18T11:42:04.101Z,9.93
2023-05-18T11:43:04.089Z,10.73
2023-05-18T11:44:04.082Z,10.42
2023-05-18T11:45:04.074Z,10.42
2023-05-18T11:46:04.063Z,9.52
2023-05-18T11:47:04.049Z,10.02
2023-05-18T11:48:04.100Z,10.73
2023-05-18T11:49:04.112Z,10.97
2023-05-18T11:50:04.021Z,9.60
2023-05-18T11:51:04.003Z,10.42
2023-05-18T11:52:03.998Z,9.85
2023-05-18T11:53:03.986Z,10.42
2023-05-18T11:54:03.989Z,10.26
2023-05-18T11:55:03.966Z,10.26
2023-05-18T11:56:03.975Z,10.50
2023-05-18T11:57:03.962Z,10.89
2023-05-18T11:58:03.939Z,11.63
2023-05-18T11:59:03.937Z,10.34
2023-05-18T12:00:03.918Z,10.26
2023-05-18T12:01:03.913Z,10.50
2023-05-18T12:02:04.007Z,10.34
2023-05-18T12:03:04.454Z,10.26
2023-05-18T12:04:03.898Z,9.52
2023-05-18T12:05:03.861Z,9.60
2023-05-18T12:06:03.855Z,9.85
2023-05-18T12:07:03.841Z,9.93
2023-05-18T12:08:03.836Z,10.89
2023-05-18T12:09:03.905Z,10.57
2023-05-18T12:10:03.827Z,10.89
2023-05-18T12:11:03.803Z,10.81
2023-05-18T12:12:03.809Z,10.57
2023-05-18T12:13:03.791Z,10.89
2023-05-18T12:14:03.776Z,10.81
2023-05-18T12:15:03.759Z,10.57
2023-05-18T12:16:03.752Z,10.57
2023-05-18T12:17:03.821Z,10.65
2023-05-18T12:18:03.780Z,11.14
2023-05-18T12:19:03.785Z,10.65
2023-05-18T12:20:03.700Z,11.22
2023-05-18T12:21:03.714Z,10.50
2023-05-18T12:22:03.684Z,9.85
2023-05-18T12:23:03.679Z,10.18
2023-05-18T12:24:03.663Z,11.14
2023-05-18T12:25:03.663Z,11.47
2023-05-18T12:26:03.648Z,10.18
2023-05-18T12:27:04.976Z,10.18
2023-05-18T12:28:03.671Z,11.06
2023-05-18T12:29:03.611Z,11.14
2023-05-18T12:30:03.617Z,10.18
2023-05-18T12:31:03.606Z,11.14
2023-05-18T12:32:03.583Z,10.26
2023-05-18T12:33:03.676Z,10.50
2023-05-18T12:34:03.579Z,11.06
2023-05-18T12:35:03.558Z,10.73
2023-05-18T12:36:03.553Z,11.47
2023-05-18T12:37:03.528Z,10.73
2023-05-18T12:38:03.531Z,11.47
2023-05-18T12:39:03.509Z,11.06
2023-05-18T12:40:03.498Z,11.06
2023-05-18T12:41:03.485Z,11.31
2023-05-18T12:42:03.477Z,10.89
2023-05-18T12:43:03.472Z,10.97
2023-05-18T12:44:03.481Z,10.42
2023-05-18T12:45:05.752Z,10.97
2023-05-18T12:46:03.509Z,11.14
2023-05-18T12:47:03.427Z,10.42
2023-05-18T12:48:03.453Z,10.34
2023-05-18T12:49:03.416Z,10.10
2023-05-18T12:50:03.403Z,11.06
2023-05-18T12:51:03.387Z,10.89
2023-05-18T12:52:03.392Z,11.22
2023-05-18T12:53:03.368Z,10.26
2023-05-18T12:54:03.365Z,9.93
2023-05-18T12:55:03.348Z,12.18
2023-05-18T12:56:03.329Z,10.81
2023-05-18T12:57:03.326Z,10.50
2023-05-18T12:58:03.445Z,10.50
2023-05-18T12:59:03.318Z,12.02
2023-05-18T13:00:03.309Z,11.14
2023-05-18T13:01:03.284Z,10.57
2023-05-18T13:02:03.305Z,10.50
2023-05-18T13:03:03.335Z,10.18
2023-05-18T13:04:03.430Z,11.55
2023-05-18T13:05:03.245Z,11.22
2023-05-18T13:06:03.232Z,11.14
2023-05-18T13:07:03.244Z,10.81
2023-05-18T13:08:03.207Z,11.39
2023-05-18T13:09:03.215Z,11.39
2023-05-18T13:10:03.198Z,11.31
2023-05-18T13:11:12.772Z,11.63
2023-05-18T13:12:07.626Z,11.14
2023-05-18T13:13:03.173Z,11.14
2023-05-18T13:14:03.166Z,11.39
2023-05-18T13:15:03.158Z,12.18
2023-05-18T13:16:03.176Z,10.89
2023-05-18T13:17:03.252Z,11.63
2023-05-18T13:18:03.189Z,10.97